createdAt,value
2023-12-13T00:00:32.618Z,88.09
2023-12-13T00:01:32.918Z,88.11
2023-12-13T00:02:31.700Z,88.11
2023-12-13T00:03:29.950Z,88.20
2023-12-13T00:04:33.276Z,88.26
2023-12-13T00:05:31.765Z,88.32
2023-12-13T00:06:29.983Z,88.35
2023-12-13T00:07:33.109Z,88.55
2023-12-13T00:08:32.594Z,88.72
2023-12-13T00:09:31.445Z,88.80
2023-12-13T00:10:31.323Z,88.81
2023-12-13T00:11:31.040Z,88.85
2023-12-13T00:12:31.133Z,88.84
2023-12-13T00:13:31.245Z,88.84
2023-12-13T00:14:31.730Z,88.88
2023-12-13T00:15:30.357Z,88.91
2023-12-13T00:16:32.747Z,88.86
2023-12-13T00:17:30.899Z,88.80
2023-12-13T00:18:29.633Z,88.77
2023-12-13T00:19:29.126Z,88.76
2023-12-13T00:20:29.730Z,88.74
2023-12-13T00:21:31.494Z,88.58
2023-12-13T00:22:32.986Z,88.33
2023-12-13T00:23:33.969Z,88.33
2023-12-13T00:24:33.437Z,88.35
2023-12-13T00:25:31.705Z,88.39
2023-12-13T00:26:31.978Z,88.48
2023-12-13T00:27:31.656Z,88.60
2023-12-13T00:28:30.208Z,88.65
2023-12-13T00:29:31.884Z,88.56
2023-12-13T00:30:30.759Z,88.60
2023-12-13T00:31:30.654Z,88.62
2023-12-13T00:32:30.078Z,88.58
2023-12-13T00:33:30.207Z,88.54
2023-12-13T00:34:32.026Z,88.61
2023-12-13T00:35:30.133Z,88.67
2023-12-13T00:36:31.336Z,88.69
2023-12-13T00:38:33.077Z,88.72
2023-12-13T00:39:33.795Z,88.66
2023-12-13T00:40:32.879Z,88.64
2023-12-13T00:41:31.325Z,88.65
2023-12-13T00:42:31.342Z,88.69
2023-12-13T00:43:32.128Z,88.70
2023-12-13T00:44:33.166Z,88.72
2023-12-13T00:45:32.119Z,88.74
2023-12-13T00:46:31.009Z,88.72
2023-12-13T00:47:32.007Z,88.83
2023-12-13T00:48:30.618Z,88.79
2023-12-13T00:49:30.374Z,88.74
2023-12-13T00:50:31.416Z,88.67
2023-12-13T00:51:33.024Z,88.68
2023-12-13T00:52:31.955Z,88.61
2023-12-13T00:53:31.519Z,88.61
2023-12-13T00:54:30.329Z,88.57
2023-12-13T00:55:31.474Z,88.58
2023-12-13T00:56:31.386Z,88.66
2023-12-13T00:57:32.000Z,88.60
2023-12-13T00:58:32.521Z,88.64
2023-12-13T00:59:32.410Z,88.81
2023-12-13T01:00:33.529Z,88.86
2023-12-13T01:01:33.427Z,88.80
2023-12-13T01:02:34.031Z,88.82
2023-12-13T01:03:33.120Z,88.96
2023-12-13T01:04:31.689Z,88.95
2023-12-13T01:05:33.066Z,88.91
2023-12-13T01:06:34.380Z,88.80
2023-12-13T01:07:33.219Z,88.79
2023-12-13T01:08:32.191Z,88.88
2023-12-13T01:09:32.011Z,88.86
2023-12-13T01:10:32.970Z,88.80
2023-12-13T01:11:31.992Z,88.79
2023-12-13T01:12:32.133Z,88.84
2023-12-13T01:13:32.579Z,88.94
2023-12-13T01:14:30.816Z,89.09
2023-12-13T01:15:32.378Z,89.13
2023-12-13T01:16:33.269Z,89.13
2023-12-13T01:17:32.182Z,89.05
2023-12-13T01:18:32.303Z,88.92
2023-12-13T01:19:31.807Z,88.83
2023-12-13T01:20:35.543Z,88.81
2023-12-13T01:21:33.693Z,88.70
2023-12-13T01:22:32.221Z,88.63
2023-12-13T01:23:31.796Z,88.62
2023-12-13T01:24:30.105Z,88.64
2023-12-13T01:25:32.926Z,88.66
2023-12-13T01:26:32.078Z,88.66
2023-12-13T01:27:32.391Z,88.63
2023-12-13T01:28:32.266Z,88.58
2023-12-13T01:29:32.345Z,88.53
2023-12-13T01:30:32.917Z,88.49
2023-12-13T01:31:31.834Z,88.45
2023-12-13T01:32:33.322Z,88.48
2023-12-13T01:33:33.687Z,88.50
2023-12-13T01:34:32.718Z,88.54
2023-12-13T01:35:31.501Z,88.54
2023-12-13T01:36:32.355Z,88.53
2023-12-13T01:37:30.680Z,88.51
2023-12-13T01:38:31.548Z,88.46
2023-12-13T01:39:32.909Z,88.49
2023-12-13T01:40:32.065Z,88.40
2023-12-13T01:42:16.431Z,88.37
2023-12-13T01:42:30.178Z,88.41
2023-12-13T01:43:32.272Z,88.43
2023-12-13T01:44:32.556Z,88.48
2023-12-13T01:45:30.876Z,88.49
2023-12-13T01:46:31.816Z,88.50
2023-12-13T01:47:33.243Z,88.53
2023-12-13T01:48:32.827Z,88.47
2023-12-13T01:49:32.040Z,88.46
2023-12-13T01:50:31.517Z,88.31
2023-12-13T01:51:31.470Z,88.29
2023-12-13T01:52:31.854Z,88.33
2023-12-13T01:53:30.313Z,88.33
2023-12-13T01:54:31.500Z,88.31
2023-12-13T01:55:30.756Z,88.20
2023-12-13T01:56:32.022Z,88.19
2023-12-13T01:57:34.184Z,88.18
2023-12-13T01:58:33.170Z,88.12
2023-12-13T01:59:32.074Z,88.22
2023-12-13T02:00:33.056Z,88.21
2023-12-13T02:01:33.053Z,88.23
2023-12-13T02:02:32.091Z,88.24
2023-12-13T02:03:32.234Z,88.21
2023-12-13T02:04:31.938Z,88.31
2023-12-13T02:05:32.582Z,88.23
2023-12-13T02:06:32.276Z,88.17
2023-12-13T02:07:34.168Z,88.26
2023-12-13T02:08:32.470Z,88.27
2023-12-13T02:09:30.578Z,88.17
2023-12-13T02:10:31.226Z,88.06
2023-12-13T02:11:31.459Z,88.05
2023-12-13T02:12:31.816Z,88.12
2023-12-13T02:13:31.364Z,88.11
2023-12-13T02:14:33.190Z,88.06
2023-12-13T02:15:32.239Z,88.02
2023-12-13T02:16:31.286Z,88.01
2023-12-13T02:17:32.521Z,87.94
2023-12-13T02:18:30.571Z,87.99
2023-12-13T02:19:31.660Z,88.05
2023-12-13T02:20:32.522Z,88.07
2023-12-13T02:21:32.760Z,88.15
2023-12-13T02:22:31.991Z,88.23
2023-12-13T02:23:31.982Z,88.20
2023-12-13T02:24:31.390Z,88.14
2023-12-13T02:25:31.662Z,88.13
2023-12-13T02:26:31.912Z,88.15
2023-12-13T02:27:33.026Z,88.22
2023-12-13T02:28:32.447Z,88.16
2023-12-13T02:29:32.882Z,88.12
2023-12-13T02:30:32.038Z,88.15
2023-12-13T02:31:32.234Z,88.18
2023-12-13T02:32:30.348Z,88.24
2023-12-13T02:33:30.678Z,88.24
2023-12-13T02:34:29.002Z,88.29
2023-12-13T02:35:31.749Z,88.27
2023-12-13T02:36:32.062Z,88.23
2023-12-13T02:37:33.671Z,88.16
2023-12-13T02:38:32.184Z,88.17
2023-12-13T02:39:34.094Z,88.16
2023-12-13T02:40:34.175Z,88.09
2023-12-13T02:41:33.597Z,88.03
2023-12-13T02:42:31.575Z,88.02
2023-12-13T02:43:30.461Z,88.07
2023-12-13T02:44:31.653Z,88.15
2023-12-13T02:45:30.690Z,88.17
2023-12-13T02:46:31.647Z,88.08
2023-12-13T02:47:32.307Z,88.04
2023-12-13T02:48:33.179Z,88.03
2023-12-13T02:49:32.066Z,87.95
2023-12-13T02:50:32.169Z,87.94
2023-12-13T02:51:33.473Z,87.92
2023-12-13T02:52:34.039Z,87.91
2023-12-13T02:53:32.875Z,87.88
2023-12-13T02:54:31.896Z,87.87
2023-12-13T02:55:32.698Z,87.83
2023-12-13T02:56:33.379Z,87.80
2023-12-13T02:57:32.228Z,87.79
2023-12-13T02:58:32.752Z,87.76
2023-12-13T02:59:31.659Z,87.77
2023-12-13T03:00:32.654Z,87.74
2023-12-13T03:01:32.177Z,87.72
2023-12-13T03:02:32.383Z,87.69
2023-12-13T03:03:31.935Z,87.65
2023-12-13T03:04:30.347Z,87.61
2023-12-13T03:05:32.154Z,87.61
2023-12-13T03:06:32.359Z,87.63
2023-12-13T03:07:31.867Z,87.65
2023-12-13T03:08:31.668Z,87.65
2023-12-13T03:09:31.101Z,87.59
2023-12-13T03:10:33.178Z,87.59
2023-12-13T03:11:33.394Z,87.56
2023-12-13T03:12:32.969Z,87.53
2023-12-13T03:13:31.671Z,87.50
2023-12-13T03:14:32.842Z,87.51
2023-12-13T03:15:32.187Z,87.52
2023-12-13T03:16:30.771Z,87.56
2023-12-13T03:17:30.151Z,87.58
2023-12-13T03:18:32.665Z,87.54
2023-12-13T03:19:32.284Z,87.55
2023-12-13T03:20:32.941Z,87.54
2023-12-13T03:21:32.569Z,87.52
2023-12-13T03:22:33.486Z,87.55
2023-12-13T03:23:32.533Z,87.55
2023-12-13T03:24:33.927Z,87.55
2023-12-13T03:25:31.743Z,87.53
2023-12-13T03:26:32.880Z,87.46
2023-12-13T03:27:34.552Z,87.45
2023-12-13T03:28:32.163Z,87.42
2023-12-13T03:29:33.439Z,87.46
2023-12-13T03:30:31.740Z,87.43
2023-12-13T03:31:32.326Z,87.41
2023-12-13T03:32:32.756Z,87.39
2023-12-13T03:33:32.484Z,87.48
2023-12-13T03:34:32.559Z,87.49
2023-12-13T03:35:33.003Z,87.45
2023-12-13T03:36:33.091Z,87.45
2023-12-13T03:37:32.510Z,87.50
2023-12-13T03:38:32.015Z,87.49
2023-12-13T03:39:32.501Z,87.46
2023-12-13T03:40:31.311Z,87.43
2023-12-13T03:41:32.372Z,87.46
2023-12-13T03:42:32.870Z,87.47
2023-12-13T03:43:33.750Z,87.44
2023-12-13T03:44:33.150Z,87.36
2023-12-13T03:45:32.724Z,87.32
2023-12-13T03:46:33.052Z,87.37
2023-12-13T03:47:34.033Z,87.40
2023-12-13T03:48:32.777Z,87.35
2023-12-13T03:49:31.779Z,87.34
2023-12-13T03:50:31.209Z,87.31
2023-12-13T03:51:32.134Z,87.24
2023-12-13T03:52:33.947Z,87.22
2023-12-13T03:53:32.081Z,87.29
2023-12-13T03:54:31.907Z,87.28
2023-12-13T03:55:32.113Z,87.23
2023-12-13T03:56:31.845Z,87.25
2023-12-13T03:57:30.436Z,87.28
2023-12-13T03:58:31.195Z,87.27
2023-12-13T03:59:32.348Z,87.36
2023-12-13T04:00:32.673Z,87.36
2023-12-13T04:01:32.752Z,87.34
2023-12-13T04:02:33.109Z,87.36
2023-12-13T04:03:34.109Z,87.38
2023-12-13T04:04:33.605Z,87.45
2023-12-13T04:05:32.173Z,87.44
2023-12-13T04:06:32.808Z,87.45
2023-12-13T04:07:32.088Z,87.54
2023-12-13T04:08:32.540Z,87.68
2023-12-13T04:09:32.029Z,87.59
2023-12-13T04:10:32.741Z,87.52
2023-12-13T04:11:32.711Z,87.55
2023-12-13T04:12:33.086Z,87.61
2023-12-13T04:13:32.785Z,87.66
2023-12-13T04:14:33.001Z,87.69
2023-12-13T04:15:34.279Z,87.59
2023-12-13T04:16:33.925Z,87.54
2023-12-13T04:17:33.563Z,87.52
2023-12-13T04:18:33.408Z,87.52
2023-12-13T04:19:33.946Z,87.52
2023-12-13T04:20:33.407Z,87.51
2023-12-13T04:21:35.023Z,87.47
2023-12-13T04:22:33.921Z,87.50
2023-12-13T04:23:31.985Z,87.52
2023-12-13T04:24:32.874Z,87.53
2023-12-13T04:25:32.265Z,87.54
2023-12-13T04:26:33.935Z,87.54
2023-12-13T04:27:32.897Z,87.53
2023-12-13T04:28:33.663Z,87.48
2023-12-13T04:29:33.307Z,87.46
2023-12-13T04:30:32.992Z,87.51
2023-12-13T04:31:32.610Z,87.53
2023-12-13T04:32:31.905Z,87.58
2023-12-13T04:33:33.604Z,87.59
2023-12-13T04:34:32.589Z,87.55
2023-12-13T04:35:32.475Z,87.54
2023-12-13T04:36:32.908Z,87.53
2023-12-13T04:37:32.449Z,87.49
2023-12-13T04:38:32.353Z,87.46
2023-12-13T04:39:31.962Z,87.44
2023-12-13T04:40:31.766Z,87.46
2023-12-13T04:41:32.290Z,87.40
2023-12-13T04:42:33.939Z,87.34
2023-12-13T04:43:33.254Z,87.27
2023-12-13T04:44:33.279Z,87.23
2023-12-13T04:45:32.712Z,87.26
2023-12-13T04:46:30.359Z,87.32
2023-12-13T04:47:29.968Z,87.29
2023-12-13T04:48:33.325Z,87.28
2023-12-13T04:49:32.621Z,87.28
2023-12-13T04:50:31.712Z,87.22
2023-12-13T04:51:32.726Z,87.17
2023-12-13T04:52:34.414Z,87.19
2023-12-13T04:53:32.812Z,87.13
2023-12-13T04:54:32.933Z,87.08
2023-12-13T04:55:32.916Z,87.09
2023-12-13T04:56:33.237Z,87.06
2023-12-13T04:57:32.710Z,87.11
2023-12-13T04:58:32.429Z,87.12
2023-12-13T04:59:31.844Z,87.09
2023-12-13T05:00:34.266Z,87.01
2023-12-13T05:01:34.788Z,87.04
2023-12-13T05:02:33.285Z,87.05
2023-12-13T05:03:32.628Z,87.05
2023-12-13T05:04:32.508Z,87.06
2023-12-13T05:05:33.471Z,87.11
2023-12-13T05:06:32.230Z,87.11
2023-12-13T05:07:32.946Z,87.08
2023-12-13T05:08:31.536Z,87.10
2023-12-13T05:09:33.413Z,87.10
2023-12-13T05:10:32.423Z,87.09
2023-12-13T05:11:31.667Z,86.97
2023-12-13T05:12:31.537Z,86.92
2023-12-13T05:13:33.285Z,86.96
2023-12-13T05:14:33.338Z,87.02
2023-12-13T05:15:33.955Z,87.05
2023-12-13T05:16:33.430Z,87.00
2023-12-13T05:17:32.672Z,87.04
2023-12-13T05:18:31.436Z,87.14
2023-12-13T05:19:31.036Z,87.16
2023-12-13T05:20:32.571Z,87.09
2023-12-13T05:21:34.463Z,87.07
2023-12-13T05:22:34.103Z,87.09
2023-12-13T05:23:34.698Z,87.09
2023-12-13T05:24:32.689Z,87.09
2023-12-13T05:25:33.312Z,87.06
2023-12-13T05:26:33.024Z,87.04
2023-12-13T05:27:32.690Z,87.08
2023-12-13T05:28:32.909Z,87.12
2023-12-13T05:29:32.903Z,87.09
2023-12-13T05:30:33.245Z,87.11
2023-12-13T05:31:34.847Z,87.15
2023-12-13T05:32:33.782Z,87.15
2023-12-13T05:33:35.776Z,87.15
2023-12-13T05:34:35.263Z,87.18
2023-12-13T05:35:33.504Z,87.19
2023-12-13T05:36:32.972Z,87.11
2023-12-13T05:37:33.358Z,87.01
2023-12-13T05:38:33.679Z,86.90
2023-12-13T05:39:35.589Z,86.86
2023-12-13T05:40:34.861Z,86.92
2023-12-13T05:41:34.063Z,86.96
2023-12-13T05:42:32.546Z,86.96
2023-12-13T05:43:31.472Z,86.93
2023-12-13T05:44:33.120Z,86.93
2023-12-13T05:45:33.297Z,87.00
2023-12-13T05:46:33.178Z,87.04
2023-12-13T05:47:34.631Z,87.08
2023-12-13T05:48:34.801Z,87.06
2023-12-13T05:49:33.913Z,87.03
2023-12-13T05:50:34.409Z,87.03
2023-12-13T05:51:32.974Z,87.03
2023-12-13T05:52:33.742Z,87.00
2023-12-13T05:53:33.655Z,87.03
2023-12-13T05:54:34.661Z,87.08
2023-12-13T05:55:33.852Z,87.11
2023-12-13T05:56:32.671Z,87.12
2023-12-13T05:57:33.321Z,87.12
2023-12-13T05:58:34.003Z,87.09
2023-12-13T05:59:35.156Z,87.16
2023-12-13T06:00:34.061Z,87.17
2023-12-13T06:01:34.849Z,87.15
2023-12-13T06:02:33.618Z,87.19
2023-12-13T06:03:32.962Z,87.25
2023-12-13T06:04:32.783Z,87.35
2023-12-13T06:05:37.632Z,87.32
2023-12-13T06:06:35.899Z,87.35
2023-12-13T06:07:33.718Z,87.37
2023-12-13T06:08:33.513Z,87.39
2023-12-13T06:09:33.270Z,87.44
2023-12-13T06:10:32.616Z,87.37
2023-12-13T06:11:32.670Z,87.33
2023-12-13T06:12:33.584Z,87.34
2023-12-13T06:13:34.559Z,87.33
2023-12-13T06:14:33.017Z,87.33
2023-12-13T06:15:33.996Z,87.29
2023-12-13T06:16:31.725Z,87.16
2023-12-13T06:17:30.503Z,86.95
2023-12-13T06:18:32.633Z,86.74
2023-12-13T06:19:31.641Z,86.80
2023-12-13T06:20:32.585Z,86.91
2023-12-13T06:21:31.920Z,86.94
2023-12-13T06:22:33.051Z,86.81
2023-12-13T06:23:35.307Z,86.63
2023-12-13T06:24:33.498Z,86.72
2023-12-13T06:25:33.017Z,86.84
2023-12-13T06:26:33.568Z,86.86
2023-12-13T06:27:33.180Z,86.61
2023-12-13T06:28:33.568Z,86.41
2023-12-13T06:29:33.859Z,86.35
2023-12-13T06:30:32.591Z,86.27
2023-12-13T06:31:34.065Z,86.20
2023-12-13T06:32:34.600Z,86.18
2023-12-13T06:33:34.288Z,86.35
2023-12-13T06:34:34.188Z,86.41
2023-12-13T06:35:34.271Z,86.33
2023-12-13T06:36:32.651Z,86.29
2023-12-13T06:37:33.948Z,86.26
2023-12-13T06:38:32.625Z,86.31
2023-12-13T06:39:33.343Z,86.56
2023-12-13T06:40:34.121Z,86.80
2023-12-13T06:41:32.297Z,86.88
2023-12-13T06:42:32.033Z,86.92
2023-12-13T06:43:33.286Z,86.99
2023-12-13T06:44:33.706Z,87.11
2023-12-13T06:45:32.021Z,87.25
2023-12-13T06:46:32.972Z,87.37
2023-12-13T06:47:34.608Z,87.46
2023-12-13T06:48:32.468Z,87.48
2023-12-13T06:49:34.594Z,87.48
2023-12-13T06:50:34.093Z,87.58
2023-12-13T06:51:34.954Z,87.66
2023-12-13T06:52:33.730Z,87.74
2023-12-13T06:53:33.483Z,87.81
2023-12-13T06:54:35.185Z,87.90
2023-12-13T06:55:34.501Z,87.93
2023-12-13T06:56:34.445Z,87.95
2023-12-13T06:57:35.051Z,87.99
2023-12-13T06:58:35.414Z,88.02
2023-12-13T06:59:34.408Z,88.02
2023-12-13T07:00:34.584Z,87.95
2023-12-13T07:01:34.679Z,87.96
2023-12-13T07:02:34.305Z,88.02
2023-12-13T07:03:33.306Z,88.00
2023-12-13T07:04:33.797Z,88.06
2023-12-13T07:05:33.053Z,88.12
2023-12-13T07:06:34.102Z,88.12
2023-12-13T07:07:34.519Z,88.08
2023-12-13T07:08:32.623Z,88.09
2023-12-13T07:09:33.198Z,88.10
2023-12-13T07:10:33.264Z,88.12
2023-12-13T07:11:32.586Z,88.10
2023-12-13T07:12:33.692Z,88.20
2023-12-13T07:13:35.336Z,88.23
2023-12-13T07:14:33.904Z,88.16
2023-12-13T07:15:33.673Z,88.05
2023-12-13T07:16:35.529Z,88.01
2023-12-13T07:17:33.806Z,88.00
2023-12-13T07:18:34.179Z,87.98
2023-12-13T07:19:33.705Z,87.94
2023-12-13T07:20:33.980Z,87.91
2023-12-13T07:21:34.637Z,87.89
2023-12-13T07:22:33.500Z,87.82
2023-12-13T07:23:33.494Z,87.81
2023-12-13T07:24:35.057Z,87.73
2023-12-13T07:25:33.964Z,87.69
2023-12-13T07:26:33.525Z,87.69
2023-12-13T07:27:33.997Z,87.72
2023-12-13T07:28:34.325Z,87.76
2023-12-13T07:29:33.171Z,87.79
2023-12-13T07:30:34.004Z,87.86
2023-12-13T07:32:12.180Z,87.90
2023-12-13T07:32:32.532Z,87.90
2023-12-13T07:33:30.448Z,87.91
2023-12-13T07:35:13.380Z,87.91
2023-12-13T07:35:32.457Z,87.91
2023-12-13T07:36:30.936Z,88.00
2023-12-13T07:37:33.172Z,88.09
2023-12-13T07:38:34.393Z,88.11
2023-12-13T07:39:33.906Z,88.12
2023-12-13T07:40:32.541Z,88.12
2023-12-13T07:41:32.705Z,88.17
2023-12-13T07:42:34.380Z,88.21
2023-12-13T07:43:35.179Z,88.26
2023-12-13T07:44:34.520Z,88.30
2023-12-13T07:45:34.032Z,88.38
2023-12-13T07:46:35.263Z,88.43
2023-12-13T07:47:36.741Z,88.50
2023-12-13T07:49:28.925Z,88.49
2023-12-13T07:49:31.857Z,88.49
2023-12-13T07:51:01.982Z,88.51
2023-12-13T07:51:33.152Z,88.50
2023-12-13T07:52:35.171Z,88.48
2023-12-13T07:53:34.379Z,88.46
2023-12-13T07:54:34.989Z,88.45
2023-12-13T07:55:34.927Z,88.47
2023-12-13T07:56:34.051Z,88.53
2023-12-13T07:57:34.921Z,88.47
2023-12-13T07:58:33.670Z,88.45
2023-12-13T07:59:36.960Z,88.46
2023-12-13T08:00:35.718Z,88.41
2023-12-13T08:01:35.775Z,88.37
2023-12-13T08:02:44.004Z,88.43
2023-12-13T08:03:36.149Z,88.52
2023-12-13T08:04:35.583Z,88.55
2023-12-13T08:05:33.708Z,88.54
2023-12-13T08:06:34.611Z,88.55
2023-12-13T08:07:34.057Z,88.59
2023-12-13T08:08:34.754Z,88.65
2023-12-13T08:09:34.241Z,88.69
2023-12-13T08:10:35.005Z,88.64
2023-12-13T08:11:34.642Z,88.66
2023-12-13T08:12:34.331Z,88.73
2023-12-13T08:13:36.406Z,88.73
2023-12-13T08:14:35.650Z,88.78
2023-12-13T08:15:37.112Z,88.91
2023-12-13T08:17:08.808Z,89.00
2023-12-13T08:17:34.027Z,89.00
2023-12-13T08:18:34.816Z,89.08
2023-12-13T08:19:35.352Z,89.17
2023-12-13T08:20:37.105Z,89.15
2023-12-13T08:21:53.736Z,89.16
2023-12-13T08:23:09.764Z,89.19
2023-12-13T08:23:36.146Z,89.25
2023-12-13T08:24:36.488Z,89.26
2023-12-13T08:25:35.409Z,89.31
2023-12-13T08:26:34.113Z,89.35
2023-12-13T08:27:36.242Z,89.38
2023-12-13T08:28:35.007Z,89.41
2023-12-13T08:30:10.397Z,89.44
2023-12-13T08:30:30.793Z,89.45
2023-12-13T08:32:19.943Z,89.61
2023-12-13T08:32:32.548Z,89.61
2023-12-13T08:33:31.193Z,89.66
2023-12-13T08:34:35.261Z,89.66
2023-12-13T08:35:34.883Z,89.66
2023-12-13T08:36:33.187Z,89.63
2023-12-13T08:37:35.326Z,89.66
2023-12-13T08:38:34.927Z,89.68
2023-12-13T08:39:34.794Z,89.67
2023-12-13T08:40:35.582Z,89.66
2023-12-13T08:41:29.520Z,89.69
2023-12-13T08:45:06.190Z,89.62
2023-12-13T08:45:36.253Z,89.56
2023-12-13T08:47:03.033Z,89.53
2023-12-13T08:47:35.216Z,89.55
2023-12-13T08:48:34.575Z,89.59
2023-12-13T08:49:34.160Z,89.62
2023-12-13T08:50:34.137Z,89.62
2023-12-13T08:51:34.897Z,89.63
2023-12-13T08:52:34.025Z,89.59
2023-12-13T08:53:35.901Z,89.55
2023-12-13T08:54:33.572Z,89.56
2023-12-13T08:55:32.994Z,89.58
2023-12-13T08:56:33.956Z,89.58
2023-12-13T08:57:32.221Z,89.57
2023-12-13T08:58:33.278Z,89.54
2023-12-13T08:59:33.655Z,89.52
2023-12-13T09:01:14.777Z,89.50
2023-12-13T09:01:34.644Z,89.41
2023-12-13T09:02:36.288Z,89.28
2023-12-13T09:03:36.979Z,89.29
2023-12-13T09:05:02.288Z,89.35
2023-12-13T09:05:34.831Z,89.45
2023-12-13T09:06:35.474Z,89.51
2023-12-13T09:07:35.847Z,89.52
2023-12-13T09:08:36.482Z,89.59
2023-12-13T09:09:34.852Z,89.56
2023-12-13T09:10:32.259Z,89.52
2023-12-13T09:11:34.563Z,89.56
2023-12-13T09:12:33.943Z,89.51
2023-12-13T09:13:33.219Z,89.46
2023-12-13T09:14:35.658Z,89.44
2023-12-13T09:15:36.171Z,89.43
2023-12-13T09:16:34.927Z,89.46
2023-12-13T09:17:33.991Z,89.53
2023-12-13T09:18:33.914Z,89.59
2023-12-13T09:19:34.179Z,89.60
2023-12-13T09:20:33.940Z,89.48
2023-12-13T09:21:34.918Z,89.33
2023-12-13T09:22:35.245Z,89.44
2023-12-13T09:23:34.570Z,89.44
2023-12-13T09:24:35.025Z,89.45
2023-12-13T09:25:35.204Z,89.48
2023-12-13T09:26:33.873Z,89.54
2023-12-13T09:27:34.271Z,89.53
2023-12-13T09:28:34.280Z,89.50
2023-12-13T09:29:33.074Z,89.45
2023-12-13T09:30:34.716Z,89.31
2023-12-13T09:31:34.546Z,89.26
2023-12-13T09:32:34.794Z,89.32
2023-12-13T09:33:34.274Z,89.27
2023-12-13T09:34:34.616Z,89.32
2023-12-13T09:35:34.255Z,89.34
2023-12-13T09:36:36.427Z,89.42
2023-12-13T09:37:36.391Z,89.45
2023-12-13T09:38:36.762Z,89.49
2023-12-13T09:39:36.158Z,89.47
2023-12-13T09:41:08.153Z,89.37
2023-12-13T09:41:32.381Z,89.30
2023-12-13T09:42:36.116Z,89.10
2023-12-13T09:43:36.636Z,88.98
2023-12-13T09:44:33.129Z,88.99
2023-12-13T09:45:33.199Z,88.91
2023-12-13T09:46:35.390Z,88.88
2023-12-13T09:47:35.402Z,88.70
2023-12-13T09:48:35.433Z,88.51
2023-12-13T09:49:38.470Z,88.33
2023-12-13T09:50:50.031Z,88.31
2023-12-13T09:51:37.459Z,88.20
2023-12-13T09:52:35.597Z,87.98
2023-12-13T09:53:33.042Z,87.84
2023-12-13T09:54:36.453Z,87.84
2023-12-13T09:55:32.855Z,87.77
2023-12-13T09:56:34.678Z,87.53
2023-12-13T09:57:35.285Z,87.63
2023-12-13T09:58:34.338Z,87.41
2023-12-13T09:59:35.188Z,87.26
2023-12-13T10:00:35.698Z,87.28
2023-12-13T10:02:02.050Z,87.12
2023-12-13T10:03:10.184Z,87.04
2023-12-13T10:03:32.919Z,87.24
2023-12-13T10:04:33.984Z,87.38
2023-12-13T10:05:34.639Z,87.30
2023-12-13T10:06:33.102Z,87.15
2023-12-13T10:07:35.101Z,87.33
2023-12-13T10:08:34.938Z,86.88
2023-12-13T10:09:34.977Z,87.16
2023-12-13T10:10:34.514Z,86.80
2023-12-13T10:11:33.448Z,86.64
2023-12-13T10:12:37.939Z,86.85
2023-12-13T10:13:35.327Z,86.57
2023-12-13T10:14:34.451Z,86.5
2023-12-13T10:15:34.320Z,86.06
2023-12-13T10:16:34.117Z,85.92
2023-12-13T10:18:17.078Z,85.71
2023-12-13T10:18:32.862Z,85.58
2023-12-13T10:19:33.402Z,85.65
2023-12-13T10:20:37.861Z,85.37
2023-12-13T10:21:36.772Z,85.27
2023-12-13T10:22:36.751Z,85.18
2023-12-13T10:23:37.613Z,85.22
2023-12-13T10:24:37.377Z,85.26
2023-12-13T10:25:36.498Z,84.87
2023-12-13T10:26:36.287Z,84.15
2023-12-13T10:27:34.323Z,83.43
2023-12-13T10:28:34.569Z,83.59
2023-12-13T10:29:36.359Z,83.66
2023-12-13T10:30:36.023Z,83.76
2023-12-13T10:31:36.416Z,83.89
2023-12-13T10:32:36.542Z,83.49
2023-12-13T10:33:36.317Z,83.26
2023-12-13T10:34:34.894Z,83.21
2023-12-13T10:35:34.472Z,83.22
2023-12-13T10:36:36.828Z,83.11
2023-12-13T10:37:36.974Z,83.06
2023-12-13T10:38:35.138Z,83.05
2023-12-13T10:39:35.208Z,82.96
2023-12-13T10:40:35.538Z,82.73
2023-12-13T10:41:36.061Z,82.79
2023-12-13T10:42:35.865Z,82.48
2023-12-13T10:43:35.229Z,82.52
2023-12-13T10:44:36.328Z,82.84
2023-12-13T10:45:36.144Z,82.60
2023-12-13T10:46:36.812Z,82.64
2023-12-13T10:47:35.113Z,82.45
2023-12-13T10:48:36.977Z,82.43
2023-12-13T10:49:35.786Z,82.13
2023-12-13T10:50:34.960Z,82.10
2023-12-13T10:51:36.555Z,82.05
2023-12-13T10:52:37.050Z,82.16
2023-12-13T10:53:36.575Z,82.37
2023-12-13T10:54:34.853Z,82.31
2023-12-13T10:55:33.688Z,82.19
2023-12-13T10:56:39.858Z,81.81
2023-12-13T10:57:36.760Z,81.72
2023-12-13T10:58:34.330Z,81.91
2023-12-13T10:59:33.516Z,82.04
2023-12-13T11:00:34.526Z,81.95
2023-12-13T11:01:37.523Z,81.93
2023-12-13T11:02:37.664Z,81.80
2023-12-13T11:03:38.093Z,81.72
2023-12-13T11:05:08.414Z,81.61
2023-12-13T11:05:33.316Z,81.37
2023-12-13T11:06:31.325Z,81.42
2023-12-13T11:08:08.720Z,81.50
2023-12-13T11:08:33.698Z,81.37
2023-12-13T11:09:34.508Z,81.17
2023-12-13T11:10:36.456Z,81.41
2023-12-13T11:11:35.847Z,81.18
2023-12-13T11:12:34.955Z,81.19
2023-12-13T11:13:36.544Z,81.40
2023-12-13T11:14:36.802Z,81.34
2023-12-13T11:16:01.100Z,81.32
2023-12-13T11:17:05.494Z,81.05
2023-12-13T11:17:33.603Z,80.87
2023-12-13T11:19:00.372Z,81.03
2023-12-13T11:19:54.814Z,80.90
2023-12-13T11:21:32.825Z,81.05
2023-12-13T11:23:09.305Z,81.08
2023-12-13T11:23:37.045Z,81.01
2023-12-13T11:25:06.212Z,81.04
2023-12-13T11:25:38.890Z,80.77
2023-12-13T11:27:13.515Z,80.86
2023-12-13T11:27:37.873Z,80.32
2023-12-13T11:29:08.752Z,80.30
2023-12-13T11:29:36.312Z,80.55
2023-12-13T11:30:36.652Z,80.67
2023-12-13T11:31:36.902Z,80.80
2023-12-13T11:32:35.382Z,80.91
2023-12-13T11:33:34.804Z,80.97
2023-12-13T11:34:33.931Z,80.55
2023-12-13T11:35:35.570Z,80.41
2023-12-13T11:36:36.404Z,80.12
2023-12-13T11:37:35.534Z,80.22
2023-12-13T11:38:34.788Z,80.05
2023-12-13T11:39:35.003Z,79.91
2023-12-13T11:40:34.904Z,79.84
2023-12-13T11:41:34.132Z,79.90
2023-12-13T11:42:34.291Z,80.03
2023-12-13T11:43:34.786Z,80.13
2023-12-13T11:44:35.785Z,79.95
2023-12-13T11:45:34.672Z,79.86
2023-12-13T11:46:35.637Z,79.44
2023-12-13T11:47:36.319Z,79.31
2023-12-13T11:48:35.959Z,79.47
2023-12-13T11:49:35.405Z,79.37
2023-12-13T11:50:34.910Z,79.49
2023-12-13T11:51:34.281Z,79.52
2023-12-13T11:52:35.648Z,79.55
2023-12-13T11:53:35.904Z,79.57
2023-12-13T11:54:35.742Z,79.61
2023-12-13T11:55:35.386Z,79.72
2023-12-13T11:56:36.242Z,79.79
2023-12-13T11:57:36.370Z,79.55
2023-12-13T11:58:35.395Z,79.49
2023-12-13T11:59:36.074Z,79.49
2023-12-13T12:00:36.021Z,79.23
2023-12-13T12:01:38.636Z,79.18
2023-12-13T12:03:11.934Z,79.04
2023-12-13T12:03:33.425Z,79.10
2023-12-13T12:04:34.922Z,79.31
2023-12-13T12:05:35.657Z,79.29
2023-12-13T12:06:36.929Z,79.12
2023-12-13T12:07:36.677Z,79.14
2023-12-13T12:08:36.712Z,79.03
2023-12-13T12:09:36.121Z,78.52
2023-12-13T12:10:35.314Z,78.50
2023-12-13T12:11:35.540Z,78.58
2023-12-13T12:12:35.630Z,78.59
2023-12-13T12:13:34.249Z,78.56
2023-12-13T12:14:34.301Z,78.28
2023-12-13T12:15:35.715Z,78.17
2023-12-13T12:16:36.380Z,78.25
2023-12-13T12:17:36.492Z,78.20
2023-12-13T12:18:35.523Z,78.05
2023-12-13T12:19:35.857Z,77.97
2023-12-13T12:20:35.880Z,77.94
2023-12-13T12:21:35.553Z,77.64
2023-12-13T12:22:35.260Z,77.65
2023-12-13T12:23:35.252Z,77.13
2023-12-13T12:24:35.250Z,77.19
2023-12-13T12:25:34.744Z,77.25
2023-12-13T12:26:33.878Z,77.43
2023-12-13T12:27:33.202Z,77.19
2023-12-13T12:28:34.259Z,77.37
2023-12-13T12:29:34.791Z,77.78
2023-12-13T12:30:35.239Z,78.01
2023-12-13T12:31:36.263Z,78.11
2023-12-13T12:32:35.606Z,78.25
2023-12-13T12:33:34.837Z,78.33
2023-12-13T12:34:35.174Z,78.55
2023-12-13T12:35:35.590Z,78.69
2023-12-13T12:36:36.199Z,78.40
2023-12-13T12:37:35.222Z,78.14
2023-12-13T12:38:34.856Z,78.18
2023-12-13T12:39:34.565Z,78.44
2023-12-13T12:40:33.966Z,78.17
2023-12-13T12:41:36.661Z,77.96
2023-12-13T12:42:35.541Z,78.02
2023-12-13T12:43:35.112Z,77.84
2023-12-13T12:44:34.208Z,77.79
2023-12-13T12:45:34.445Z,77.80
2023-12-13T12:46:35.660Z,77.95
2023-12-13T12:47:36.172Z,77.52
2023-12-13T12:48:37.949Z,77.67
2023-12-13T12:50:07.753Z,77.65
2023-12-13T12:50:32.859Z,77.48
2023-12-13T12:51:36.140Z,77.46
2023-12-13T12:52:34.906Z,77.52
2023-12-13T12:53:35.599Z,77.75
2023-12-13T12:54:34.619Z,78.01
2023-12-13T12:55:34.940Z,78.03
2023-12-13T12:57:05.964Z,77.98